Wetterdaten für den Flughafen Lübeck Blankensee


ADDS - METARS form results Aviation Digital Data Service (ADDS) Output produced by METARs form (2319 UTC 20 January 2020)
found at http://www.aviationweather.gov/metar/data/
 
EDHL 201850Z 23007KT CAVOK 05/03 Q1043
TAF EDHL 201700Z 2018/2021 23005KT 9999 FEW010

Nord: Hamburg, Lübeck
Ost: Schwerin, Rostock
Süd: Hannover
West: Bremen, Nordhloz

 

Copyright © 2016 Flugschule Hohensee